This is the latest recevied weather packets stored in our database for station/object OE6PWE-13. If no packets are shown the sender has not sent any weather packets the latest 10 day(s).
| Time | Temp. | Humidity | Pressure | Rain* | Wind** | Luminosity | Snow |
|---|---|---|---|---|---|---|---|
| 1788151511 | 13.89° C | 99% | 1016 hPa | 0 mm | - | - | - |
| 1788150611 | 13.89° C | 99% | 1016 hPa | 0 mm | - | - | - |
| 1788149712 | 13.89° C | 99% | 1016 hPa | 0 mm | - | - | - |
| 1788148812 | 14.44° C | 99% | 1015 hPa | 0 mm | - | - | - |
| 1788147912 | 14.44° C | 99% | 1015 hPa | 0 mm | - | - | - |
| 1788147011 | 14.44° C | 99% | 1016 hPa | 0 mm | - | - | - |
| 1788146112 | 14.44° C | 99% | 1015 hPa | 0 mm | - | - | - |
| 1788143412 | 15° C | 99% | 1016 hPa | 0 mm | - | - | - |
| 1788142511 | 15° C | 99% | 1016 hPa | 0 mm | - | - | - |
| 1788119112 | 19.44° C | 85% | 1016 hPa | 0 mm | - | - | - |
| 1788111912 | 25.56° C | 62% | 1014 hPa | 0 mm | - | - | - |
| 1788106512 | 30° C | 50% | 1013 hPa | 0 mm | - | - | - |
| 1788105612 | 31.11° C | 47% | 1013 hPa | 0 mm | - | - | - |
| 1788104712 | 30.56° C | 46% | 1013 hPa | 0 mm | - | - | - |
| 1788103812 | 30.56° C | 48% | 1013 hPa | 0 mm | - | - | - |
| 1788100212 | 31.11° C | 44% | 1014 hPa | 0 mm | - | - | - |
| 1788099312 | 31.67° C | 45% | 1014 hPa | 0 mm | - | - | - |
| 1788095712 | 30.56° C | 45% | 1014 hPa | 0 mm | - | - | - |
| 1788093912 | 30.56° C | 46% | 1014 hPa | 0 mm | - | - | - |
| 1788093012 | 30.56° C | 46% | 1014 hPa | 0 mm | - | - | - |
| 1788092112 | 31.11° C | 45% | 1014 hPa | 0 mm | - | - | - |
| 1788091211 | 30.56° C | 45% | 1015 hPa | 0 mm | - | - | - |
| 1788089412 | 29.44° C | 46% | 1015 hPa | 0 mm | - | - | - |
| 1788088512 | 29.44° C | 48% | 1015 hPa | 0 mm | - | - | - |
| 1788087612 | 29.44° C | 49% | 1015 hPa | 0 mm | - | - | - |
* Rain latest hour (hover to see other rain measurements)
** Current wind speed in m/s (hover to see current wind gust speed)